Time;durP1;ratioP1;P1;durP2;ratioP2;P2;SDS_P1;SDS_P2;PMS_P1;PMS_P2;Temp;Humidity;BMP_temperature;BMP_pressure;BME280_temperature;BME280_humidity;BME280_pressure;Samples;Min_cycle;Max_cycle;Signal;HPM_P1;HPM_P2
2022/07/11 00:01:09;;;;;;;3.35;1.42;;;16.00;99.90;;;;;;5072517;28;20063;-41
2022/07/11 00:03:35;;;;;;;2.53;1.10;;;16.00;99.90;;;;;;5073703;28;20415;-41
2022/07/11 00:06:01;;;;;;;2.10;1.00;;;16.00;99.90;;;;;;5093467;28;20059;-41
2022/07/11 00:08:26;;;;;;;2.35;0.82;;;16.00;99.90;;;;;;5076861;28;20135;-41
2022/07/11 00:10:53;;;;;;;2.42;0.93;;;16.00;99.90;;;;;;5091647;28;20055;-41
2022/07/11 00:13:19;;;;;;;1.45;0.90;;;16.00;99.90;;;;;;5076487;28;20549;-41
2022/07/11 00:15:44;;;;;;;2.72;0.93;;;16.00;99.90;;;;;;5081293;28;20072;-41
2022/07/11 00:18:10;;;;;;;2.97;1.05;;;16.00;99.90;;;;;;5077079;28;20051;-41
2022/07/11 00:20:36;;;;;;;2.35;0.90;;;16.00;99.90;;;;;;5092982;28;20052;-41
2022/07/11 00:23:01;;;;;;;1.65;0.90;;;15.90;99.90;;;;;;5089362;28;20037;-41
2022/07/11 00:25:27;;;;;;;3.53;1.20;;;16.00;99.90;;;;;;5061887;28;20049;-41
2022/07/11 00:27:53;;;;;;;1.95;0.80;;;15.90;99.90;;;;;;5056142;28;20123;-42
2022/07/11 00:30:18;;;;;;;1.27;0.85;;;15.90;99.90;;;;;;5082207;28;20063;-41
2022/07/11 00:32:44;;;;;;;3.38;0.93;;;15.90;99.90;;;;;;5091933;28;20067;-41
2022/07/11 00:35:11;;;;;;;2.08;1.20;;;15.90;99.90;;;;;;5089283;28;20084;-41
2022/07/11 00:37:36;;;;;;;1.00;0.90;;;15.90;99.90;;;;;;5056962;28;20048;-42
2022/07/11 00:40:03;;;;;;;3.55;1.10;;;15.80;99.90;;;;;;5082054;28;20127;-41
2022/07/11 00:42:28;;;;;;;4.70;1.05;;;15.80;99.90;;;;;;5080229;28;20051;-42
2022/07/11 00:44:54;;;;;;;2.58;1.10;;;15.80;99.90;;;;;;5085065;28;20037;-41
2022/07/11 00:47:20;;;;;;;2.38;1.40;;;15.80;99.90;;;;;;5055829;28;20045;-41
2022/07/11 00:49:46;;;;;;;2.22;1.20;;;15.80;99.90;;;;;;5079518;28;20044;-41
2022/07/11 00:52:11;;;;;;;3.35;0.93;;;15.80;99.90;;;;;;5091394;28;20415;-42
2022/07/11 00:54:37;;;;;;;4.07;1.52;;;15.80;99.90;;;;;;5091779;28;20483;-41
2022/07/11 00:57:03;;;;;;;2.17;1.30;;;15.80;99.90;;;;;;5075504;28;20108;-41
2022/07/11 00:59:30;;;;;;;2.42;1.30;;;15.80;99.90;;;;;;5090972;28;20043;-41
2022/07/11 01:01:55;;;;;;;2.58;1.20;;;15.80;99.90;;;;;;5073177;28;20053;-41
2022/07/11 01:04:22;;;;;;;3.58;1.58;;;15.80;99.90;;;;;;5071103;28;20499;-42
2022/07/11 01:06:47;;;;;;;3.70;1.80;;;15.70;99.90;;;;;;5056572;28;20068;-41
2022/07/11 01:09:13;;;;;;;5.10;1.73;;;15.70;99.90;;;;;;5079540;28;20533;-41
2022/07/11 01:11:39;;;;;;;1.77;1.58;;;15.70;99.90;;;;;;5091317;28;20044;-41
2022/07/11 01:14:05;;;;;;;3.38;1.73;;;15.70;99.90;;;;;;5091144;28;20388;-41
2022/07/11 01:16:31;;;;;;;3.30;1.50;;;15.70;99.90;;;;;;5058117;28;20534;-42
2022/07/11 01:18:56;;;;;;;3.75;1.50;;;15.70;99.90;;;;;;5067847;28;20052;-41
2022/07/11 01:21:39;;;;;;;5.07;1.80;;;15.70;99.90;;;;;;5071085;28;20052;-41
2022/07/11 01:24:05;;;;;;;5.20;2.33;;;15.70;99.90;;;;;;5062736;28;20488;-41
2022/07/11 01:26:34;;;;;;;2.10;1.70;;;15.70;99.90;;;;;;5054695;28;20048;-41
2022/07/11 01:29:09;;;;;;;4.80;1.60;;;15.70;99.90;;;;;;5068338;28;20049;-41
2022/07/11 01:31:38;;;;;;;3.95;1.55;;;15.70;99.90;;;;;;5067036;28;20064;-42
2022/07/11 01:34:04;;;;;;;3.53;2.10;;;15.70;99.90;;;;;;5070244;28;20413;-41
2022/07/11 01:36:31;;;;;;;4.80;2.15;;;15.70;99.90;;;;;;5059875;28;20044;-42
2022/07/11 01:38:56;;;;;;;8.05;1.85;;;15.70;99.90;;;;;;5069978;28;20049;-41
2022/07/11 01:41:22;;;;;;;5.05;2.30;;;15.70;99.90;;;;;;5070917;28;20408;-41
2022/07/11 01:43:48;;;;;;;2.90;1.60;;;15.70;99.90;;;;;;5070268;28;20048;-41
2022/07/11 01:46:13;;;;;;;2.67;1.48;;;15.70;99.90;;;;;;5061309;28;20044;-42
2022/07/11 01:48:39;;;;;;;4.25;1.52;;;15.70;99.90;;;;;;5064077;28;20048;-41
2022/07/11 01:51:05;;;;;;;3.35;1.60;;;15.70;99.90;;;;;;5070893;28;20124;-41
2022/07/11 01:53:30;;;;;;;2.40;1.50;;;15.70;99.90;;;;;;5069763;28;20052;-41
2022/07/11 01:55:56;;;;;;;2.78;1.52;;;15.60;99.90;;;;;;5070887;28;20045;-41
2022/07/11 01:58:22;;;;;;;2.28;1.58;;;15.70;99.90;;;;;;5054168;28;20110;-41
2022/07/11 02:00:48;;;;;;;4.63;1.90;;;15.70;99.90;;;;;;5089362;28;20062;-41
2022/07/11 02:03:13;;;;;;;2.45;1.70;;;15.60;99.90;;;;;;5077934;28;20074;-41
2022/07/11 02:05:39;;;;;;;3.10;1.70;;;15.60;99.90;;;;;;5070325;28;20083;-41
2022/07/11 02:08:12;;;;;;;4.03;1.92;;;15.60;99.90;;;;;;5054635;28;20068;-42
2022/07/11 02:10:50;;;;;;;3.13;1.92;;;15.60;99.90;;;;;;5069448;28;20052;-41
2022/07/11 02:13:18;;;;;;;4.15;1.80;;;15.60;99.90;;;;;;5069550;28;20053;-41
2022/07/11 02:15:44;;;;;;;5.40;1.80;;;15.60;99.90;;;;;;5079285;28;20044;-41
2022/07/11 02:18:11;;;;;;;5.25;1.85;;;15.60;99.90;;;;;;5074500;28;20039;-41
2022/07/11 02:20:39;;;;;;;4.43;1.90;;;15.60;99.90;;;;;;5090640;28;20048;-42
2022/07/11 02:23:05;;;;;;;4.53;2.10;;;15.60;99.90;;;;;;5089719;28;20063;-41
2022/07/11 02:25:31;;;;;;;4.20;2.30;;;15.60;99.90;;;;;;5059062;28;20499;-41
2022/07/11 02:27:58;;;;;;;4.72;2.30;;;15.60;99.90;;;;;;5053697;28;20037;-41
2022/07/11 02:30:24;;;;;;;4.88;1.80;;;15.60;99.90;;;;;;5070543;28;20086;-41
2022/07/11 02:32:51;;;;;;;4.18;1.60;;;15.60;99.90;;;;;;5069620;28;20049;-41
2022/07/11 02:35:17;;;;;;;3.58;1.70;;;15.60;99.90;;;;;;5070540;28;20098;-41
2022/07/11 02:37:43;;;;;;;4.57;1.70;;;15.60;99.90;;;;;;5054480;28;20509;-41
2022/07/11 02:40:09;;;;;;;2.95;1.60;;;15.60;99.90;;;;;;5070506;28;20099;-41
2022/07/11 02:42:35;;;;;;;2.47;1.33;;;15.60;99.90;;;;;;5069369;28;20037;-41
2022/07/11 02:45:02;;;;;;;5.53;1.70;;;15.60;99.90;;;;;;5068787;28;20074;-41
2022/07/11 02:47:28;;;;;;;3.28;1.58;;;15.60;99.90;;;;;;5064205;28;20440;-41
2022/07/11 02:49:53;;;;;;;4.53;1.27;;;15.60;99.90;;;;;;5079075;28;20048;-41
2022/07/11 02:52:19;;;;;;;4.93;1.60;;;15.60;99.90;;;;;;5073854;28;20044;-42
2022/07/11 02:54:45;;;;;;;4.00;1.50;;;15.60;99.90;;;;;;5070213;28;20478;-41
2022/07/11 02:57:10;;;;;;;3.42;1.13;;;15.60;99.90;;;;;;5054262;28;20059;-41
2022/07/11 02:59:36;;;;;;;4.05;1.52;;;15.60;99.90;;;;;;5069531;28;20141;-41
2022/07/11 03:02:04;;;;;;;2.30;1.13;;;15.60;99.90;;;;;;5067304;28;20088;-41
2022/07/11 03:04:33;;;;;;;3.55;0.80;;;15.60;99.90;;;;;;5068810;28;20047;-41
2022/07/11 03:06:59;;;;;;;1.45;0.90;;;15.60;99.90;;;;;;5054937;28;20071;-41
2022/07/11 03:09:24;;;;;;;3.35;0.70;;;15.60;99.90;;;;;;5069289;28;20484;-41
2022/07/11 03:11:50;;;;;;;3.53;1.00;;;15.60;99.90;;;;;;5069598;28;20754;-41
2022/07/11 03:14:16;;;;;;;3.33;1.05;;;15.60;99.90;;;;;;5068905;28;20056;-42
2022/07/11 03:16:42;;;;;;;3.35;1.23;;;15.60;99.90;;;;;;5073152;28;20044;-42
2022/07/11 03:19:08;;;;;;;3.53;1.08;;;15.60;99.90;;;;;;5091409;28;20127;-41
2022/07/11 03:21:34;;;;;;;3.15;0.90;;;15.60;99.90;;;;;;5094035;28;20045;-41
2022/07/11 03:23:59;;;;;;;3.00;1.15;;;15.60;99.90;;;;;;5078203;28;20106;-41
2022/07/11 03:26:26;;;;;;;5.22;0.90;;;15.60;99.90;;;;;;5059339;28;20052;-41
2022/07/11 03:28:51;;;;;;;2.28;0.88;;;15.60;99.90;;;;;;5069170;28;20515;-40
2022/07/11 03:31:18;;;;;;;2.40;0.80;;;15.60;99.90;;;;;;5072075;28;20048;-41
2022/07/11 03:33:44;;;;;;;2.75;0.80;;;15.60;99.90;;;;;;5072776;28;20045;-41
2022/07/11 03:36:10;;;;;;;1.92;0.60;;;15.60;99.90;;;;;;5071951;28;20584;-41
2022/07/11 03:38:37;;;;;;;2.65;0.45;;;15.70;99.90;;;;;;5070900;28;20487;-41
2022/07/11 03:41:04;;;;;;;2.10;0.60;;;15.60;99.90;;;;;;5071998;28;20048;-41
2022/07/11 03:43:30;;;;;;;2.97;0.60;;;15.60;99.90;;;;;;5072628;28;20056;-41
2022/07/11 03:45:56;;;;;;;2.35;0.57;;;15.60;99.90;;;;;;5075960;28;20048;-41
2022/07/11 03:48:22;;;;;;;3.47;0.60;;;15.60;99.90;;;;;;5056823;28;20119;-41
2022/07/11 03:50:48;;;;;;;2.20;0.55;;;15.60;99.90;;;;;;5073437;28;20140;-41
2022/07/11 03:53:14;;;;;;;1.10;0.28;;;15.60;99.90;;;;;;5070742;28;20479;-41
2022/07/11 03:55:40;;;;;;;3.55;0.68;;;15.60;99.90;;;;;;5076403;28;20048;-41
2022/07/11 03:58:06;;;;;;;1.38;0.40;;;15.50;99.90;;;;;;5077130;28;20072;-41
2022/07/11 04:00:32;;;;;;;1.92;0.50;;;15.60;99.90;;;;;;5092784;28;20511;-41
2022/07/11 04:02:57;;;;;;;1.45;0.43;;;15.60;99.90;;;;;;5092098;28;20044;-42
2022/07/11 04:05:24;;;;;;;2.30;0.47;;;15.60;99.90;;;;;;5093409;28;20112;-41
2022/07/11 04:07:49;;;;;;;1.38;0.45;;;15.60;99.90;;;;;;5076849;28;20562;-42
2022/07/11 04:10:17;;;;;;;4.70;0.55;;;15.60;99.90;;;;;;5065737;28;20189;-41
2022/07/11 04:12:43;;;;;;;2.50;0.50;;;15.60;99.90;;;;;;5082092;28;20540;-41
2022/07/11 04:15:10;;;;;;;2.38;0.30;;;15.70;99.90;;;;;;5078326;28;20610;-41
2022/07/11 04:17:36;;;;;;;1.02;0.60;;;15.60;99.90;;;;;;5065055;28;20131;-42
2022/07/11 04:20:02;;;;;;;4.70;0.70;;;15.60;99.90;;;;;;5081552;28;20126;-41
2022/07/11 04:22:28;;;;;;;2.50;0.63;;;15.60;99.90;;;;;;5082339;28;20059;-42
2022/07/11 04:24:54;;;;;;;2.22;0.40;;;15.60;99.90;;;;;;5080946;28;20490;-41
2022/07/11 04:27:20;;;;;;;3.40;0.45;;;15.70;99.90;;;;;;5063794;28;20045;-42
2022/07/11 04:29:45;;;;;;;2.05;0.77;;;15.70;99.90;;;;;;5076870;28;20047;-42
2022/07/11 04:32:11;;;;;;;1.38;0.43;;;15.70;99.90;;;;;;5092189;28;20551;-42
2022/07/11 04:34:37;;;;;;;4.07;0.45;;;15.70;99.90;;;;;;5091517;28;20060;-41
2022/07/11 04:37:03;;;;;;;3.15;0.65;;;15.70;99.90;;;;;;5076124;28;20529;-41
2022/07/11 04:39:28;;;;;;;4.50;0.73;;;15.70;99.90;;;;;;5075263;28;20454;-42
2022/07/11 04:41:54;;;;;;;1.95;0.50;;;15.70;99.90;;;;;;5082972;28;20407;-41
2022/07/11 04:44:20;;;;;;;3.53;0.55;;;15.70;99.90;;;;;;5087101;28;20044;-41
2022/07/11 04:46:45;;;;;;;3.95;0.47;;;15.70;99.90;;;;;;5066383;28;20127;-41
2022/07/11 04:49:11;;;;;;;3.60;0.30;;;15.70;99.90;;;;;;5074834;28;20553;-41
2022/07/11 04:51:37;;;;;;;3.58;0.57;;;15.80;99.90;;;;;;5072155;28;20094;-41
2022/07/11 04:54:03;;;;;;;1.95;0.45;;;15.80;99.90;;;;;;5071373;28;20049;-41
2022/07/11 04:56:29;;;;;;;1.52;0.45;;;15.80;99.90;;;;;;5059965;28;20040;-41
2022/07/11 04:58:54;;;;;;;3.40;0.50;;;15.80;99.90;;;;;;5071186;28;20449;-41
2022/07/11 05:01:20;;;;;;;2.70;0.47;;;15.80;99.90;;;;;;5081853;28;20095;-42
2022/07/11 05:03:45;;;;;;;2.08;0.30;;;15.80;99.90;;;;;;5073667;28;20043;-41
2022/07/11 05:06:11;;;;;;;2.53;0.40;;;15.80;99.90;;;;;;5083999;28;20086;-42
2022/07/11 05:08:37;;;;;;;1.90;0.40;;;15.90;99.90;;;;;;5078224;28;20471;-42
2022/07/11 05:11:04;;;;;;;3.17;0.40;;;15.80;99.90;;;;;;5060961;28;20044;-41
2022/07/11 05:13:30;;;;;;;2.50;0.40;;;15.90;99.90;;;;;;5069821;28;20040;-41
2022/07/11 05:15:56;;;;;;;2.22;0.40;;;15.90;99.90;;;;;;5081315;28;20070;-41
2022/07/11 05:18:22;;;;;;;3.95;0.43;;;15.90;99.90;;;;;;5075814;28;20517;-41
2022/07/11 05:20:48;;;;;;;4.47;0.45;;;15.90;99.90;;;;;;5090424;28;20088;-41
2022/07/11 05:23:14;;;;;;;4.00;0.50;;;15.90;99.90;;;;;;5088702;28;20123;-41
2022/07/11 05:25:40;;;;;;;1.77;0.40;;;15.90;99.90;;;;;;5061888;28;20534;-41
2022/07/11 05:28:06;;;;;;;2.85;0.30;;;15.90;99.90;;;;;;5054991;28;20128;-41
2022/07/11 05:30:32;;;;;;;2.30;0.28;;;16.00;99.90;;;;;;5071807;28;20075;-41
2022/07/11 05:32:57;;;;;;;2.17;0.22;;;16.00;99.90;;;;;;5070388;28;20663;-41
2022/07/11 05:35:25;;;;;;;1.88;0.20;;;16.00;99.90;;;;;;5071228;28;20529;-41
2022/07/11 05:37:50;;;;;;;2.10;0.30;;;16.00;99.90;;;;;;5055145;28;20036;-42
2022/07/11 05:40:16;;;;;;;1.73;0.30;;;16.00;99.90;;;;;;5082076;28;20127;-41
2022/07/11 05:42:42;;;;;;;2.20;0.50;;;16.00;99.90;;;;;;5071913;28;20044;-41
2022/07/11 05:45:08;;;;;;;1.58;0.40;;;16.00;99.90;;;;;;5073136;28;20503;-42
2022/07/11 05:47:34;;;;;;;1.65;0.40;;;16.00;99.90;;;;;;5051934;28;20647;-42
2022/07/11 05:49:59;;;;;;;2.75;0.70;;;16.00;99.90;;;;;;5074412;28;20048;-41
2022/07/11 05:52:25;;;;;;;3.25;0.60;;;16.10;99.90;;;;;;5070075;28;20049;-41
2022/07/11 05:54:51;;;;;;;2.65;0.60;;;16.10;99.90;;;;;;5070928;28;20045;-41
2022/07/11 05:57:16;;;;;;;1.73;0.40;;;16.10;99.90;;;;;;5054837;28;20048;-41
2022/07/11 05:59:42;;;;;;;2.67;0.50;;;16.10;99.90;;;;;;5066562;28;20052;-41
2022/07/11 06:02:08;;;;;;;2.22;0.40;;;16.10;99.90;;;;;;5062143;28;20162;-42
2022/07/11 06:04:34;;;;;;;1.80;0.57;;;16.20;99.90;;;;;;5073093;28;20086;-41
2022/07/11 06:07:00;;;;;;;2.22;0.50;;;16.20;99.90;;;;;;5051781;28;20052;-42
2022/07/11 06:09:26;;;;;;;1.48;0.32;;;16.20;99.90;;;;;;5049877;28;20518;-42
2022/07/11 06:11:52;;;;;;;1.98;0.50;;;16.20;99.90;;;;;;5067723;28;20127;-41
2022/07/11 06:14:18;;;;;;;5.47;0.95;;;16.20;99.90;;;;;;5060151;28;20045;-41
2022/07/11 06:16:43;;;;;;;4.55;0.88;;;16.20;99.90;;;;;;5053800;28;20044;-41
2022/07/11 06:19:09;;;;;;;3.03;0.88;;;16.20;99.90;;;;;;5064350;28;20105;-41
2022/07/11 06:21:35;;;;;;;5.65;0.73;;;16.30;99.90;;;;;;5069380;28;20166;-41
2022/07/11 06:24:00;;;;;;;2.67;0.40;;;16.20;99.90;;;;;;5066893;28;20738;-42
2022/07/11 06:26:26;;;;;;;2.00;0.52;;;16.20;99.90;;;;;;5058039;28;20094;-41
2022/07/11 06:28:52;;;;;;;1.73;0.20;;;16.30;99.90;;;;;;5065385;28;20040;-41
2022/07/11 06:31:18;;;;;;;0.40;0.10;;;16.30;99.90;;;;;;5069258;28;20849;-41
2022/07/11 06:33:43;;;;;;;1.15;0.20;;;16.30;99.90;;;;;;5065653;28;20093;-41
2022/07/11 06:36:09;;;;;;;3.22;0.30;;;16.20;99.90;;;;;;5061713;28;20438;-41
2022/07/11 06:38:35;;;;;;;2.13;0.20;;;16.20;99.90;;;;;;5061695;28;20093;-41
2022/07/11 06:41:00;;;;;;;1.05;0.40;;;16.30;99.90;;;;;;5086283;28;20198;-41
2022/07/11 06:43:28;;;;;;;1.23;0.30;;;16.30;99.90;;;;;;5045446;28;20052;-41
2022/07/11 06:45:54;;;;;;;3.42;0.28;;;16.30;99.90;;;;;;5043388;28;20069;-41
2022/07/11 06:48:21;;;;;;;3.13;0.50;;;16.30;99.90;;;;;;5039770;28;20578;-41
2022/07/11 06:50:47;;;;;;;1.35;0.50;;;16.40;99.90;;;;;;5044503;28;20062;-42
2022/07/11 06:53:13;;;;;;;3.15;0.70;;;16.40;99.90;;;;;;5043291;28;20532;-41
2022/07/11 06:55:38;;;;;;;2.33;0.60;;;16.40;99.90;;;;;;5062974;28;20052;-41
2022/07/11 06:58:05;;;;;;;1.58;0.50;;;16.40;99.90;;;;;;5031911;28;20078;-41
2022/07/11 07:00:31;;;;;;;2.72;0.52;;;16.40;99.90;;;;;;5047553;28;20057;-41
2022/07/11 07:02:57;;;;;;;2.03;0.60;;;16.40;99.90;;;;;;5061264;28;20210;-41
2022/07/11 07:05:26;;;;;;;2.13;0.70;;;16.40;99.90;;;;;;5061661;28;20162;-41
2022/07/11 07:07:52;;;;;;;4.38;0.40;;;16.50;99.90;;;;;;5045367;28;20036;-41
2022/07/11 07:10:19;;;;;;;1.40;0.40;;;16.50;99.90;;;;;;5040488;28;20401;-41
2022/07/11 07:12:45;;;;;;;3.25;0.40;;;16.50;99.90;;;;;;5076724;28;20120;-41
2022/07/11 07:15:13;;;;;;;2.15;0.40;;;16.60;99.90;;;;;;5056393;28;20124;-41
2022/07/11 07:17:39;;;;;;;1.25;0.30;;;16.60;99.90;;;;;;5060149;28;20052;-42
2022/07/11 07:20:08;;;;;;;2.35;0.28;;;16.70;99.90;;;;;;5074755;28;20043;-41
2022/07/11 07:22:34;;;;;;;1.08;0.20;;;16.70;99.90;;;;;;5066572;28;20040;-41
2022/07/11 07:25:00;;;;;;;2.42;0.40;;;16.90;99.90;;;;;;5065198;28;20128;-42
2022/07/11 07:27:26;;;;;;;1.67;0.25;;;16.80;99.90;;;;;;5045387;28;20150;-41
2022/07/11 07:29:52;;;;;;;1.17;0.30;;;16.90;99.90;;;;;;5061775;28;20511;-41
2022/07/11 07:32:18;;;;;;;0.85;0.10;;;16.90;99.90;;;;;;5058831;28;20053;-42
2022/07/11 07:34:43;;;;;;;1.25;0.20;;;17.00;99.90;;;;;;5062189;28;20768;-42
2022/07/11 07:37:09;;;;;;;1.90;0.20;;;17.00;99.90;;;;;;5045699;28;20415;-41
2022/07/11 07:39:35;;;;;;;1.02;0.10;;;17.00;99.90;;;;;;5057306;28;20135;-41
2022/07/11 07:42:00;;;;;;;0.40;0.00;;;16.90;99.90;;;;;;5058601;28;20123;-42
2022/07/11 07:44:26;;;;;;;0.43;0.05;;;16.90;99.90;;;;;;5058884;28;20048;-42
2022/07/11 07:46:52;;;;;;;0.30;0.00;;;16.90;99.90;;;;;;5045580;28;20039;-42
2022/07/11 07:49:18;;;;;;;0.90;0.00;;;17.00;99.90;;;;;;5060548;28;20049;-41
2022/07/11 07:51:43;;;;;;;1.42;0.10;;;16.90;99.90;;;;;;5060316;28;20056;-41
2022/07/11 07:54:09;;;;;;;0.20;0.00;;;17.00;99.90;;;;;;5059393;28;20091;-42
2022/07/11 07:56:35;;;;;;;1.33;0.00;;;17.00;99.90;;;;;;5045242;28;20131;-41
2022/07/11 07:59:00;;;;;;;0.32;0.10;;;17.00;99.90;;;;;;5059119;28;20052;-41
2022/07/11 08:01:35;;;;;;;0.47;0.10;;;17.00;99.90;;;;;;5062392;28;20526;-41
2022/07/11 08:04:05;;;;;;;0.20;0.00;;;17.10;99.90;;;;;;5059505;28;20060;-41
2022/07/11 08:06:31;;;;;;;0.45;0.10;;;17.20;99.90;;;;;;5048571;28;20818;-42
2022/07/11 08:08:58;;;;;;;1.38;0.05;;;17.20;99.90;;;;;;5058971;28;20419;-41
2022/07/11 08:11:25;;;;;;;0.40;0.03;;;17.30;99.90;;;;;;5061526;28;20594;-41
2022/07/11 08:13:50;;;;;;;0.20;0.00;;;17.30;99.90;;;;;;5061435;28;20095;-42
2022/07/11 08:16:16;;;;;;;0.38;0.08;;;17.40;99.90;;;;;;5045848;28;20086;-42
2022/07/11 08:18:42;;;;;;;0.30;0.00;;;17.50;99.90;;;;;;5055262;28;22115;-41
2022/07/11 08:21:09;;;;;;;0.20;0.00;;;17.50;99.90;;;;;;5057633;28;20074;-41
2022/07/11 08:23:35;;;;;;;0.20;0.00;;;17.50;99.90;;;;;;5055875;28;20048;-42
2022/07/11 08:26:00;;;;;;;0.47;0.00;;;17.50;99.90;;;;;;5060243;28;20040;-42
2022/07/11 08:28:26;;;;;;;0.15;0.00;;;17.60;99.90;;;;;;5046030;28;20060;-41
2022/07/11 08:30:52;;;;;;;0.22;0.00;;;17.60;99.90;;;;;;5060061;28;20084;-42
2022/07/11 08:33:18;;;;;;;0.35;0.00;;;17.70;99.90;;;;;;5061486;28;20052;-41
2022/07/11 08:35:43;;;;;;;0.22;0.00;;;17.70;99.90;;;;;;5059247;28;20523;-41
2022/07/11 08:38:09;;;;;;;0.28;0.00;;;17.70;99.90;;;;;;5043669;28;20053;-42
2022/07/11 08:40:35;;;;;;;0.73;0.00;;;17.70;99.90;;;;;;5058685;28;20036;-41
2022/07/11 08:43:05;;;;;;;1.75;0.00;;;17.70;99.90;;;;;;5058701;28;20041;-41
2022/07/11 08:45:31;;;;;;;0.20;0.00;;;17.60;99.90;;;;;;5060344;28;20450;-42
2022/07/11 08:48:00;;;;;;;1.60;0.08;;;17.60;99.90;;;;;;5045499;28;20045;-41
2022/07/11 08:50:27;;;;;;;0.68;0.00;;;17.70;99.90;;;;;;5047196;28;20045;-42
2022/07/11 08:52:54;;;;;;;0.82;0.05;;;17.70;99.90;;;;;;5058440;28;20598;-42
2022/07/11 08:55:20;;;;;;;0.20;0.00;;;17.70;99.90;;;;;;5062338;28;20078;-42
2022/07/11 08:57:46;;;;;;;1.70;0.00;;;17.70;99.90;;;;;;5040570;28;20045;-42
2022/07/11 09:00:13;;;;;;;0.70;0.10;;;17.80;99.90;;;;;;5061677;28;20060;-42
2022/07/11 09:02:42;;;;;;;0.63;0.00;;;17.90;99.90;;;;;;5042573;28;20043;-42
2022/07/11 09:05:08;;;;;;;0.85;0.00;;;17.90;99.90;;;;;;5056135;28;20621;-41
2022/07/11 09:07:41;;;;;;;0.43;0.00;;;17.90;99.90;;;;;;5042641;28;20041;-42
2022/07/11 09:10:07;;;;;;;0.63;0.03;;;17.80;99.90;;;;;;5058082;28;20051;-42
2022/07/11 09:12:33;;;;;;;1.23;0.00;;;17.90;99.90;;;;;;5057424;28;20036;-41
2022/07/11 09:14:59;;;;;;;1.00;0.10;;;17.90;99.90;;;;;;5054543;28;20113;-42
2022/07/11 09:17:28;;;;;;;2.40;0.10;;;17.90;99.90;;;;;;5042372;28;20482;-42
2022/07/11 09:19:54;;;;;;;0.20;0.00;;;17.90;99.90;;;;;;5059426;28;20522;-41
2022/07/11 09:25:31;;;;;;;1.50;0.10;;;17.90;99.90;;;;;;5057651;28;20102;-41
2022/07/11 09:28:05;;;;;;;0.60;0.00;;;17.90;99.90;;;;;;5046080;28;20449;-41
2022/07/11 09:30:39;;;;;;;0.52;0.05;;;17.90;99.90;;;;;;5060314;28;20084;-41
2022/07/11 09:33:09;;;;;;;0.20;0.00;;;18.00;99.90;;;;;;5057024;28;20044;-42
2022/07/11 09:35:41;;;;;;;0.20;0.10;;;18.00;99.90;;;;;;5061684;28;20071;-41
2022/07/11 09:38:12;;;;;;;0.82;0.00;;;18.10;99.90;;;;;;5040653;28;20040;-41
2022/07/11 09:40:42;;;;;;;2.00;0.00;;;18.20;99.90;;;;;;5057561;28;20132;-42
2022/07/11 09:43:07;;;;;;;1.35;0.00;;;18.20;99.90;;;;;;5040992;28;20620;-42
2022/07/11 09:45:35;;;;;;;0.70;0.00;;;18.30;99.90;;;;;;5055051;28;20055;-41
2022/07/11 09:48:11;;;;;;;0.20;0.00;;;18.30;99.90;;;;;;5040596;28;20048;-42
2022/07/11 09:50:39;;;;;;;0.47;0.10;;;18.30;99.90;;;;;;5056477;28;20052;-41
2022/07/11 09:53:09;;;;;;;0.30;0.00;;;18.40;99.90;;;;;;5041219;28;20067;-42
2022/07/11 09:55:46;;;;;;;1.70;0.00;;;18.40;99.90;;;;;;5058484;28;20055;-41
2022/07/11 09:58:16;;;;;;;0.43;0.00;;;18.40;99.90;;;;;;5044349;28;20044;-41
2022/07/11 10:00:44;;;;;;;1.05;0.00;;;18.40;99.90;;;;;;5058398;28;20064;-41
2022/07/11 10:03:12;;;;;;;1.45;0.10;;;18.40;99.90;;;;;;5041930;28;20080;-41
2022/07/11 10:05:38;;;;;;;1.77;0.00;;;18.40;99.90;;;;;;5058961;28;20410;-41
2022/07/11 10:08:05;;;;;;;0.32;0.00;;;18.40;99.90;;;;;;5042043;28;20052;-42
2022/07/11 10:10:33;;;;;;;0.50;0.00;;;18.30;99.90;;;;;;5058478;28;20040;-41
2022/07/11 10:12:59;;;;;;;0.93;0.03;;;18.30;99.90;;;;;;5059719;28;20136;-42
2022/07/11 10:15:36;;;;;;;1.48;0.10;;;18.20;99.90;;;;;;5057552;28;20127;-41
2022/07/11 10:18:23;;;;;;;0.82;0.05;;;18.30;99.90;;;;;;5041834;28;20048;-41
2022/07/11 10:20:55;;;;;;;0.95;0.30;;;18.40;99.90;;;;;;5058534;28;20063;-41
2022/07/11 10:23:31;;;;;;;0.85;0.10;;;18.40;99.90;;;;;;5056294;28;20147;-41
2022/07/11 10:26:15;;;;;;;2.28;0.00;;;18.40;99.90;;;;;;5057895;28;20071;-41
2022/07/11 10:28:55;;;;;;;0.22;0.00;;;18.40;99.90;;;;;;5054140;28;20155;-41
2022/07/11 10:31:25;;;;;;;1.27;0.05;;;18.40;99.90;;;;;;5058279;28;20419;-41
2022/07/11 10:34:10;;;;;;;0.50;0.10;;;18.50;99.90;;;;;;5058281;28;20084;-41
2022/07/11 10:36:43;;;;;;;0.68;0.00;;;18.50;99.90;;;;;;5042841;28;20528;-42
2022/07/11 10:39:26;;;;;;;0.40;0.00;;;18.50;99.90;;;;;;5059674;28;20442;-41
2022/07/11 10:41:55;;;;;;;2.40;0.10;;;18.50;99.90;;;;;;5058655;28;20178;-42
2022/07/11 10:44:21;;;;;;;1.83;0.10;;;18.50;99.90;;;;;;5040153;28;20054;-42
2022/07/11 10:46:47;;;;;;;0.22;0.00;;;18.60;99.90;;;;;;5041850;28;20068;-42
2022/07/11 10:49:13;;;;;;;1.98;0.13;;;18.60;99.90;;;;;;5058708;28;20103;-41
2022/07/11 10:51:59;;;;;;;1.65;0.10;;;18.60;99.90;;;;;;5062325;28;20056;-41
2022/07/11 10:54:44;;;;;;;0.32;0.10;;;18.70;99.90;;;;;;5061092;28;20060;-42
2022/07/11 10:57:26;;;;;;;0.50;0.00;;;18.80;99.90;;;;;;5040323;28;20060;-41
2022/07/11 10:59:57;;;;;;;0.30;0.10;;;18.80;99.90;;;;;;5058768;28;20096;-42
2022/07/11 11:02:23;;;;;;;;;;;18.90;99.90;;;;;;5055355;28;22659;-41
2022/07/11 11:05:00;;;;;;;0.10;0.00;;;18.80;99.90;;;;;;5058367;28;20062;-42
2022/07/11 11:07:43;;;;;;;0.47;0.00;;;18.90;99.90;;;;;;5038900;28;20487;-42
2022/07/11 11:10:18;;;;;;;1.15;0.03;;;18.90;99.90;;;;;;5055592;28;21337;-41
2022/07/11 11:13:05;;;;;;;0.22;0.00;;;18.90;99.90;;;;;;5055572;28;20114;-42
2022/07/11 11:15:45;;;;;;;0.60;0.10;;;18.90;99.90;;;;;;5056608;28;20060;-42
2022/07/11 11:18:25;;;;;;;0.52;0.10;;;18.90;99.90;;;;;;5038443;28;20048;-42
2022/07/11 11:21:02;;;;;;;1.27;0.10;;;18.90;99.90;;;;;;5040682;28;20057;-41
2022/07/11 11:23:39;;;;;;;0.57;0.20;;;18.90;99.90;;;;;;5056307;28;20063;-42
2022/07/11 11:26:16;;;;;;;2.88;0.20;;;19.00;99.90;;;;;;5042461;28;20391;-41
2022/07/11 11:28:56;;;;;;;3.17;0.40;;;19.00;99.90;;;;;;5051570;28;20060;-41
2022/07/11 11:31:22;;;;;;;1.33;0.20;;;19.00;99.90;;;;;;5060733;28;20055;-42
2022/07/11 11:33:48;;;;;;;0.90;0.20;;;19.00;99.90;;;;;;5060195;28;20119;-41
2022/07/11 11:36:17;;;;;;;0.90;0.10;;;19.10;99.90;;;;;;5047552;28;20044;-41
2022/07/11 11:38:43;;;;;;;1.90;0.10;;;19.10;99.90;;;;;;5052197;28;20474;-41
2022/07/11 11:41:09;;;;;;;1.05;0.10;;;19.10;99.90;;;;;;5061635;28;20048;-42
2022/07/11 11:43:37;;;;;;;0.08;0.00;;;19.00;99.90;;;;;;5062498;28;20185;-42
2022/07/11 11:46:02;;;;;;;0.10;0.00;;;19.00;99.90;;;;;;5064036;28;20120;-42
2022/07/11 11:48:28;;;;;;;0.82;0.10;;;19.00;99.90;;;;;;5045578;28;20119;-42
2022/07/11 11:51:04;;;;;;;0.13;0.00;;;19.10;99.90;;;;;;5059884;28;20048;-42
2022/07/11 11:53:40;;;;;;;0.43;0.10;;;19.20;99.90;;;;;;5063361;28;20096;-42
2022/07/11 11:56:13;;;;;;;0.20;0.00;;;19.20;99.90;;;;;;5057577;28;20056;-41
2022/07/11 11:58:39;;;;;;;0.15;0.00;;;19.20;99.90;;;;;;5053988;28;20625;-41
2022/07/11 12:01:05;;;;;;;0.88;0.00;;;19.20;99.90;;;;;;5058234;28;20064;-42
2022/07/11 12:03:50;;;;;;;0.20;0.00;;;19.20;99.90;;;;;;5059853;28;20075;-42
2022/07/11 12:06:16;;;;;;;0.35;0.00;;;19.20;99.90;;;;;;5033664;28;20040;-42
2022/07/11 12:08:42;;;;;;;1.52;0.00;;;19.10;99.90;;;;;;5058896;28;21461;-41
2022/07/11 12:11:14;;;;;;;0.90;0.10;;;19.20;99.90;;;;;;5060651;28;20040;-41
2022/07/11 12:13:43;;;;;;;0.30;0.00;;;19.20;99.90;;;;;;5059778;28;20052;-41
2022/07/11 12:19:01;;;;;;;0.60;0.00;;;19.20;99.90;;;;;;5057871;28;20564;-42
2022/07/11 12:21:29;;;;;;;2.25;0.00;;;19.30;99.90;;;;;;5061027;28;20036;-41
2022/07/11 12:24:15;;;;;;;1.92;0.00;;;19.30;99.90;;;;;;5058695;28;20044;-41
2022/07/11 12:26:42;;;;;;;2.38;0.10;;;19.20;99.90;;;;;;5048304;28;20155;-42
2022/07/11 12:29:12;;;;;;;0.20;0.00;;;19.20;99.90;;;;;;5059659;28;20077;-41
2022/07/11 12:31:59;;;;;;;0.60;0.10;;;19.20;99.90;;;;;;5060364;28;20404;-41
2022/07/11 12:34:46;;;;;;;1.60;0.00;;;19.20;99.90;;;;;;5058420;28;20047;-42
2022/07/11 12:37:17;;;;;;;0.68;0.17;;;19.10;99.90;;;;;;5044267;28;20060;-41
2022/07/11 12:39:51;;;;;;;;;;;19.20;99.90;;;;;;5059699;28;20056;-41
2022/07/11 12:42:28;;;;;;;0.95;0.10;;;19.20;99.90;;;;;;5060889;28;20026;-41
2022/07/11 12:45:08;;;;;;;2.22;0.20;;;19.30;99.90;;;;;;5059694;28;20080;-42
2022/07/11 12:47:36;;;;;;;1.38;0.13;;;19.30;99.90;;;;;;5045224;28;20547;-42
2022/07/11 12:50:28;;;;;;;0.28;0.00;;;19.40;99.90;;;;;;5056935;28;20072;-42
2022/07/11 12:52:58;;;;;;;0.85;0.13;;;19.40;99.90;;;;;;5058181;28;20044;-42
2022/07/11 12:55:29;;;;;;;0.70;0.10;;;19.40;99.90;;;;;;5059261;28;20449;-42
2022/07/11 12:58:05;;;;;;;;;;;19.40;99.90;;;;;;5044016;28;20408;-42